sensor_id;sensor_type;location;lat;lon;timestamp;temperature;humidity
14049;DHT22;7099;53.922;10.728;2023-08-20T00:01:30;21.20;83.40
14049;DHT22;7099;53.922;10.728;2023-08-20T00:05:36;21.20;83.60
14049;DHT22;7099;53.922;10.728;2023-08-20T00:09:42;21.10;83.60
14049;DHT22;7099;53.922;10.728;2023-08-20T00:13:48;21.10;83.80
14049;DHT22;7099;53.922;10.728;2023-08-20T00:17:54;21.00;83.60
14049;DHT22;7099;53.922;10.728;2023-08-20T00:22:00;21.00;83.70
14049;DHT22;7099;53.922;10.728;2023-08-20T00:26:06;20.90;83.60
14049;DHT22;7099;53.922;10.728;2023-08-20T00:30:12;20.90;83.70
14049;DHT22;7099;53.922;10.728;2023-08-20T00:34:19;20.80;84.00
14049;DHT22;7099;53.922;10.728;2023-08-20T00:38:24;20.70;84.20
14049;DHT22;7099;53.922;10.728;2023-08-20T00:42:30;20.70;84.40
14049;DHT22;7099;53.922;10.728;2023-08-20T00:46:36;20.60;84.50
14049;DHT22;7099;53.922;10.728;2023-08-20T00:50:41;20.50;84.80
14049;DHT22;7099;53.922;10.728;2023-08-20T00:54:47;20.50;85.00
14049;DHT22;7099;53.922;10.728;2023-08-20T00:58:55;20.40;85.00
14049;DHT22;7099;53.922;10.728;2023-08-20T01:03:02;20.40;85.20
14049;DHT22;7099;53.922;10.728;2023-08-20T01:07:24;20.40;85.30
14049;DHT22;7099;53.922;10.728;2023-08-20T01:11:52;20.30;85.60
14049;DHT22;7099;53.922;10.728;2023-08-20T01:16:01;20.30;85.50
14049;DHT22;7099;53.922;10.728;2023-08-20T01:20:09;20.20;85.40
14049;DHT22;7099;53.922;10.728;2023-08-20T01:28:48;20.20;85.40
14049;DHT22;7099;53.922;10.728;2023-08-20T01:32:56;20.10;85.40
14049;DHT22;7099;53.922;10.728;2023-08-20T01:37:02;20.10;85.40
14049;DHT22;7099;53.922;10.728;2023-08-20T01:41:07;20.00;85.40
14049;DHT22;7099;53.922;10.728;2023-08-20T01:45:13;19.90;85.40
14049;DHT22;7099;53.922;10.728;2023-08-20T01:49:18;19.90;85.50
14049;DHT22;7099;53.922;10.728;2023-08-20T01:53:24;19.80;85.60
14049;DHT22;7099;53.922;10.728;2023-08-20T01:57:30;19.80;85.30
14049;DHT22;7099;53.922;10.728;2023-08-20T02:01:35;19.70;85.00
14049;DHT22;7099;53.922;10.728;2023-08-20T02:05:41;19.70;84.90
14049;DHT22;7099;53.922;10.728;2023-08-20T02:09:46;19.60;84.90
14049;DHT22;7099;53.922;10.728;2023-08-20T02:13:52;19.50;84.60
14049;DHT22;7099;53.922;10.728;2023-08-20T02:17:58;19.50;84.40
14049;DHT22;7099;53.922;10.728;2023-08-20T02:22:03;19.40;84.10
14049;DHT22;7099;53.922;10.728;2023-08-20T02:26:09;19.40;84.10
14049;DHT22;7099;53.922;10.728;2023-08-20T02:30:15;19.30;84.20
14049;DHT22;7099;53.922;10.728;2023-08-20T02:34:21;19.20;84.00
14049;DHT22;7099;53.922;10.728;2023-08-20T02:38:27;19.10;83.80
14049;DHT22;7099;53.922;10.728;2023-08-20T02:42:33;19.10;83.80
14049;DHT22;7099;53.922;10.728;2023-08-20T02:46:38;19.00;83.70
14049;DHT22;7099;53.922;10.728;2023-08-20T02:50:46;18.90;83.60
14049;DHT22;7099;53.922;10.728;2023-08-20T02:54:51;18.80;83.40
14049;DHT22;7099;53.922;10.728;2023-08-20T02:58:57;18.70;83.80
14049;DHT22;7099;53.922;10.728;2023-08-20T03:03:03;18.70;84.50
14049;DHT22;7099;53.922;10.728;2023-08-20T03:07:11;18.60;84.50
14049;DHT22;7099;53.922;10.728;2023-08-20T03:11:17;18.60;84.60
14049;DHT22;7099;53.922;10.728;2023-08-20T03:15:22;18.60;84.50
14049;DHT22;7099;53.922;10.728;2023-08-20T03:19:34;18.50;84.50
14049;DHT22;7099;53.922;10.728;2023-08-20T03:23:42;18.50;84.70
14049;DHT22;7099;53.922;10.728;2023-08-20T03:27:49;18.40;85.10
14049;DHT22;7099;53.922;10.728;2023-08-20T03:31:55;18.40;86.00
14049;DHT22;7099;53.922;10.728;2023-08-20T03:36:00;18.40;85.60
14049;DHT22;7099;53.922;10.728;2023-08-20T03:40:06;18.40;85.70
14049;DHT22;7099;53.922;10.728;2023-08-20T03:44:12;18.40;86.40
14049;DHT22;7099;53.922;10.728;2023-08-20T03:48:18;18.30;87.10
14049;DHT22;7099;53.922;10.728;2023-08-20T03:52:23;18.30;87.80
14049;DHT22;7099;53.922;10.728;2023-08-20T03:56:29;18.30;88.20
14049;DHT22;7099;53.922;10.728;2023-08-20T04:00:35;18.30;88.50
14049;DHT22;7099;53.922;10.728;2023-08-20T04:04:41;18.30;88.70
14049;DHT22;7099;53.922;10.728;2023-08-20T04:08:47;18.30;89.10
14049;DHT22;7099;53.922;10.728;2023-08-20T04:12:52;18.30;89.20
14049;DHT22;7099;53.922;10.728;2023-08-20T04:16:58;18.30;89.40
14049;DHT22;7099;53.922;10.728;2023-08-20T04:21:03;18.30;89.80
14049;DHT22;7099;53.922;10.728;2023-08-20T04:25:09;18.30;89.90
14049;DHT22;7099;53.922;10.728;2023-08-20T04:29:14;18.30;90.00
14049;DHT22;7099;53.922;10.728;2023-08-20T04:33:20;18.30;90.20
14049;DHT22;7099;53.922;10.728;2023-08-20T04:37:26;18.30;90.20
14049;DHT22;7099;53.922;10.728;2023-08-20T04:41:31;18.30;90.20
14049;DHT22;7099;53.922;10.728;2023-08-20T04:45:37;18.30;90.20
14049;DHT22;7099;53.922;10.728;2023-08-20T04:49:42;18.30;90.20
14049;DHT22;7099;53.922;10.728;2023-08-20T04:53:48;18.30;90.20
14049;DHT22;7099;53.922;10.728;2023-08-20T04:57:54;18.30;90.30
14049;DHT22;7099;53.922;10.728;2023-08-20T05:01:59;18.30;90.20
14049;DHT22;7099;53.922;10.728;2023-08-20T05:06:05;18.30;90.30
14049;DHT22;7099;53.922;10.728;2023-08-20T05:10:10;18.30;90.30
14049;DHT22;7099;53.922;10.728;2023-08-20T05:14:16;18.40;90.20
14049;DHT22;7099;53.922;10.728;2023-08-20T05:18:21;18.30;90.00
14049;DHT22;7099;53.922;10.728;2023-08-20T05:22:27;18.30;90.10
14049;DHT22;7099;53.922;10.728;2023-08-20T05:26:34;18.20;90.20
14049;DHT22;7099;53.922;10.728;2023-08-20T05:30:39;18.30;90.20
14049;DHT22;7099;53.922;10.728;2023-08-20T05:34:45;18.30;90.20
14049;DHT22;7099;53.922;10.728;2023-08-20T05:38:50;18.30;90.20
14049;DHT22;7099;53.922;10.728;2023-08-20T05:42:56;18.40;90.30
14049;DHT22;7099;53.922;10.728;2023-08-20T05:47:01;18.40;90.20
14049;DHT22;7099;53.922;10.728;2023-08-20T05:51:07;18.50;90.20
14049;DHT22;7099;53.922;10.728;2023-08-20T05:55:13;18.60;90.10
14049;DHT22;7099;53.922;10.728;2023-08-20T05:59:18;18.70;90.20
14049;DHT22;7099;53.922;10.728;2023-08-20T06:03:24;18.70;90.10
14049;DHT22;7099;53.922;10.728;2023-08-20T06:07:30;18.80;90.10
14049;DHT22;7099;53.922;10.728;2023-08-20T06:11:38;18.80;90.20
14049;DHT22;7099;53.922;10.728;2023-08-20T06:15:43;18.90;90.00
14049;DHT22;7099;53.922;10.728;2023-08-20T06:19:49;19.00;90.10
14049;DHT22;7099;53.922;10.728;2023-08-20T06:23:54;19.10;90.10
14049;DHT22;7099;53.922;10.728;2023-08-20T06:28:00;19.20;89.80
14049;DHT22;7099;53.922;10.728;2023-08-20T06:32:05;19.20;89.50
14049;DHT22;7099;53.922;10.728;2023-08-20T06:36:11;19.20;89.50
14049;DHT22;7099;53.922;10.728;2023-08-20T06:40:17;19.20;89.40
14049;DHT22;7099;53.922;10.728;2023-08-20T06:44:22;19.20;89.40
14049;DHT22;7099;53.922;10.728;2023-08-20T06:48:28;19.30;89.60
14049;DHT22;7099;53.922;10.728;2023-08-20T06:52:33;19.30;89.60
14049;DHT22;7099;53.922;10.728;2023-08-20T06:56:39;19.40;89.40
14049;DHT22;7099;53.922;10.728;2023-08-20T07:00:45;19.40;89.20
14049;DHT22;7099;53.922;10.728;2023-08-20T07:04:50;19.40;89.00
14049;DHT22;7099;53.922;10.728;2023-08-20T07:08:56;19.40;89.00
14049;DHT22;7099;53.922;10.728;2023-08-20T07:13:02;19.50;89.00
14049;DHT22;7099;53.922;10.728;2023-08-20T07:17:07;19.70;89.00
14049;DHT22;7099;53.922;10.728;2023-08-20T07:21:13;19.80;88.40
14049;DHT22;7099;53.922;10.728;2023-08-20T07:25:18;19.80;88.20
14049;DHT22;7099;53.922;10.728;2023-08-20T07:29:24;19.90;87.80
14049;DHT22;7099;53.922;10.728;2023-08-20T07:33:30;20.00;87.70
14049;DHT22;7099;53.922;10.728;2023-08-20T07:37:36;20.20;86.90
14049;DHT22;7099;53.922;10.728;2023-08-20T07:41:42;20.20;86.20
14049;DHT22;7099;53.922;10.728;2023-08-20T07:45:47;20.20;85.60
14049;DHT22;7099;53.922;10.728;2023-08-20T07:49:53;20.30;85.20
14049;DHT22;7099;53.922;10.728;2023-08-20T07:53:59;20.50;84.80
14049;DHT22;7099;53.922;10.728;2023-08-20T07:58:05;20.60;84.80
14049;DHT22;7099;53.922;10.728;2023-08-20T08:02:11;20.70;84.60
14049;DHT22;7099;53.922;10.728;2023-08-20T08:06:16;20.90;83.60
14049;DHT22;7099;53.922;10.728;2023-08-20T08:10:23;20.90;83.00
14049;DHT22;7099;53.922;10.728;2023-08-20T08:14:29;21.00;82.60
14049;DHT22;7099;53.922;10.728;2023-08-20T08:18:34;21.10;82.70
14049;DHT22;7099;53.922;10.728;2023-08-20T08:22:40;21.20;82.50
14049;DHT22;7099;53.922;10.728;2023-08-20T08:26:45;21.30;82.70
14049;DHT22;7099;53.922;10.728;2023-08-20T08:30:51;21.40;81.90
14049;DHT22;7099;53.922;10.728;2023-08-20T08:34:56;21.50;81.60
14049;DHT22;7099;53.922;10.728;2023-08-20T08:39:02;21.60;81.20
14049;DHT22;7099;53.922;10.728;2023-08-20T08:43:08;21.60;80.40
14049;DHT22;7099;53.922;10.728;2023-08-20T08:47:21;21.70;80.80
14049;DHT22;7099;53.922;10.728;2023-08-20T08:51:27;21.90;81.10
14049;DHT22;7099;53.922;10.728;2023-08-20T08:55:33;22.10;80.20
14049;DHT22;7099;53.922;10.728;2023-08-20T08:59:39;22.10;78.90
14049;DHT22;7099;53.922;10.728;2023-08-20T09:03:45;22.10;79.20
14049;DHT22;7099;53.922;10.728;2023-08-20T09:07:56;22.30;78.90
14049;DHT22;7099;53.922;10.728;2023-08-20T09:12:15;22.50;77.40
14049;DHT22;7099;53.922;10.728;2023-08-20T09:16:29;22.60;75.40
14049;DHT22;7099;53.922;10.728;2023-08-20T09:20:37;22.70;76.20
14049;DHT22;7099;53.922;10.728;2023-08-20T09:24:45;22.80;76.40
14049;DHT22;7099;53.922;10.728;2023-08-20T09:28:55;23.10;75.70
14049;DHT22;7099;53.922;10.728;2023-08-20T09:37:16;23.40;75.20
14049;DHT22;7099;53.922;10.728;2023-08-20T09:41:23;23.50;74.50
14049;DHT22;7099;53.922;10.728;2023-08-20T09:45:31;24.00;70.70
14049;DHT22;7099;53.922;10.728;2023-08-20T09:49:45;23.90;71.00
14049;DHT22;7099;53.922;10.728;2023-08-20T09:54:13;23.90;70.90
14049;DHT22;7099;53.922;10.728;2023-08-20T09:58:26;24.00;70.00
14049;DHT22;7099;53.922;10.728;2023-08-20T10:02:33;24.10;69.80
14049;DHT22;7099;53.922;10.728;2023-08-20T10:06:39;24.30;69.20
14049;DHT22;7099;53.922;10.728;2023-08-20T10:10:46;24.40;69.20
14049;DHT22;7099;53.922;10.728;2023-08-20T10:14:52;24.50;68.40
14049;DHT22;7099;53.922;10.728;2023-08-20T10:19:02;24.70;67.70
14049;DHT22;7099;53.922;10.728;2023-08-20T10:23:12;24.80;67.60
14049;DHT22;7099;53.922;10.728;2023-08-20T10:27:28;24.90;65.20
14049;DHT22;7099;53.922;10.728;2023-08-20T10:31:46;25.00;64.10
14049;DHT22;7099;53.922;10.728;2023-08-20T10:35:53;25.10;64.40
14049;DHT22;7099;53.922;10.728;2023-08-20T10:39:58;25.20;66.70
14049;DHT22;7099;53.922;10.728;2023-08-20T10:44:04;25.40;65.30
14049;DHT22;7099;53.922;10.728;2023-08-20T10:48:11;25.50;65.00
14049;DHT22;7099;53.922;10.728;2023-08-20T10:52:19;25.70;63.20
14049;DHT22;7099;53.922;10.728;2023-08-20T11:01:19;25.90;61.30
14049;DHT22;7099;53.922;10.728;2023-08-20T11:05:26;26.00;60.00
14049;DHT22;7099;53.922;10.728;2023-08-20T11:09:31;26.00;60.20
14049;DHT22;7099;53.922;10.728;2023-08-20T11:13:37;26.10;59.90
14049;DHT22;7099;53.922;10.728;2023-08-20T11:17:46;26.20;60.90
14049;DHT22;7099;53.922;10.728;2023-08-20T11:21:56;26.30;59.20
14049;DHT22;7099;53.922;10.728;2023-08-20T11:26:02;26.40;59.40
14049;DHT22;7099;53.922;10.728;2023-08-20T11:30:11;26.50;61.30
14049;DHT22;7099;53.922;10.728;2023-08-20T11:34:18;26.70;62.10
14049;DHT22;7099;53.922;10.728;2023-08-20T11:38:24;26.80;59.30
14049;DHT22;7099;53.922;10.728;2023-08-20T11:42:30;26.80;59.60
14049;DHT22;7099;53.922;10.728;2023-08-20T11:46:43;26.80;60.00
14049;DHT22;7099;53.922;10.728;2023-08-20T11:50:52;26.80;58.40
14049;DHT22;7099;53.922;10.728;2023-08-20T11:54:59;26.80;59.60
14049;DHT22;7099;53.922;10.728;2023-08-20T11:59:10;26.90;59.10
14049;DHT22;7099;53.922;10.728;2023-08-20T12:03:18;26.90;56.50
14049;DHT22;7099;53.922;10.728;2023-08-20T12:07:26;26.90;58.20
14049;DHT22;7099;53.922;10.728;2023-08-20T12:11:32;26.90;58.40
14049;DHT22;7099;53.922;10.728;2023-08-20T12:15:38;27.00;57.10
14049;DHT22;7099;53.922;10.728;2023-08-20T12:19:44;26.90;57.30
14049;DHT22;7099;53.922;10.728;2023-08-20T12:23:50;26.90;57.90
14049;DHT22;7099;53.922;10.728;2023-08-20T12:27:56;26.80;57.90
14049;DHT22;7099;53.922;10.728;2023-08-20T12:32:02;26.70;57.00
14049;DHT22;7099;53.922;10.728;2023-08-20T12:36:09;26.80;57.20
14049;DHT22;7099;53.922;10.728;2023-08-20T12:40:14;26.70;57.40
14049;DHT22;7099;53.922;10.728;2023-08-20T12:44:20;26.50;57.70
14049;DHT22;7099;53.922;10.728;2023-08-20T12:48:26;26.70;58.30
14049;DHT22;7099;53.922;10.728;2023-08-20T12:52:32;26.80;59.40
14049;DHT22;7099;53.922;10.728;2023-08-20T12:56:38;26.80;58.20
14049;DHT22;7099;53.922;10.728;2023-08-20T13:00:43;26.80;58.50
14049;DHT22;7099;53.922;10.728;2023-08-20T13:04:49;27.00;58.60
14049;DHT22;7099;53.922;10.728;2023-08-20T13:08:55;27.00;58.50
14049;DHT22;7099;53.922;10.728;2023-08-20T13:13:02;27.20;61.80
14049;DHT22;7099;53.922;10.728;2023-08-20T13:17:08;27.30;59.10
14049;DHT22;7099;53.922;10.728;2023-08-20T13:21:15;27.30;58.60
14049;DHT22;7099;53.922;10.728;2023-08-20T13:25:20;27.40;57.70
14049;DHT22;7099;53.922;10.728;2023-08-20T13:29:26;27.30;58.00
14049;DHT22;7099;53.922;10.728;2023-08-20T13:33:32;27.30;59.10
14049;DHT22;7099;53.922;10.728;2023-08-20T13:37:37;27.50;58.50
14049;DHT22;7099;53.922;10.728;2023-08-20T13:41:43;27.70;58.90
14049;DHT22;7099;53.922;10.728;2023-08-20T13:45:49;27.90;58.00
14049;DHT22;7099;53.922;10.728;2023-08-20T13:49:54;28.00;58.00
14049;DHT22;7099;53.922;10.728;2023-08-20T13:54:00;28.00;57.70
14049;DHT22;7099;53.922;10.728;2023-08-20T13:58:05;28.20;57.40
14049;DHT22;7099;53.922;10.728;2023-08-20T14:02:14;28.20;57.40
14049;DHT22;7099;53.922;10.728;2023-08-20T14:06:20;28.10;55.30
14049;DHT22;7099;53.922;10.728;2023-08-20T14:10:25;27.90;56.30
14049;DHT22;7099;53.922;10.728;2023-08-20T14:14:31;27.90;56.30
14049;DHT22;7099;53.922;10.728;2023-08-20T14:18:36;27.80;55.50
14049;DHT22;7099;53.922;10.728;2023-08-20T14:22:42;27.80;55.80
14049;DHT22;7099;53.922;10.728;2023-08-20T14:26:47;27.90;55.20
14049;DHT22;7099;53.922;10.728;2023-08-20T14:30:53;28.20;57.90
14049;DHT22;7099;53.922;10.728;2023-08-20T14:35:00;28.40;55.10
14049;DHT22;7099;53.922;10.728;2023-08-20T14:39:05;28.30;55.40
14049;DHT22;7099;53.922;10.728;2023-08-20T14:43:11;28.20;55.00
14049;DHT22;7099;53.922;10.728;2023-08-20T14:47:16;28.30;54.40
14049;DHT22;7099;53.922;10.728;2023-08-20T14:51:22;28.30;53.80
14049;DHT22;7099;53.922;10.728;2023-08-20T14:55:28;28.20;54.30
14049;DHT22;7099;53.922;10.728;2023-08-20T14:59:33;28.20;54.80
14049;DHT22;7099;53.922;10.728;2023-08-20T15:03:39;28.30;54.00
14049;DHT22;7099;53.922;10.728;2023-08-20T15:07:44;28.50;53.30
14049;DHT22;7099;53.922;10.728;2023-08-20T15:11:50;28.40;53.50
14049;DHT22;7099;53.922;10.728;2023-08-20T15:15:55;28.40;53.30
14049;DHT22;7099;53.922;10.728;2023-08-20T15:20:01;28.70;53.50
14049;DHT22;7099;53.922;10.728;2023-08-20T15:24:10;29.00;52.60
14049;DHT22;7099;53.922;10.728;2023-08-20T15:28:16;29.10;52.60
14049;DHT22;7099;53.922;10.728;2023-08-20T15:32:22;28.80;52.50
14049;DHT22;7099;53.922;10.728;2023-08-20T15:36:29;28.80;52.50
14049;DHT22;7099;53.922;10.728;2023-08-20T15:40:35;29.00;51.60
14049;DHT22;7099;53.922;10.728;2023-08-20T15:44:41;29.00;53.80
14049;DHT22;7099;53.922;10.728;2023-08-20T15:48:47;28.80;52.00
14049;DHT22;7099;53.922;10.728;2023-08-20T15:52:52;28.60;52.30
14049;DHT22;7099;53.922;10.728;2023-08-20T15:56:58;28.80;53.80
14049;DHT22;7099;53.922;10.728;2023-08-20T16:01:04;28.70;53.20
14049;DHT22;7099;53.922;10.728;2023-08-20T16:05:09;28.80;53.20
14049;DHT22;7099;53.922;10.728;2023-08-20T16:09:16;28.90;52.50
14049;DHT22;7099;53.922;10.728;2023-08-20T16:13:31;29.00;52.30
14049;DHT22;7099;53.922;10.728;2023-08-20T16:17:36;29.10;51.60
14049;DHT22;7099;53.922;10.728;2023-08-20T16:21:42;29.00;51.00
14049;DHT22;7099;53.922;10.728;2023-08-20T16:25:48;29.10;51.90
14049;DHT22;7099;53.922;10.728;2023-08-20T16:29:53;29.00;51.30
14049;DHT22;7099;53.922;10.728;2023-08-20T16:33:59;29.00;52.20
14049;DHT22;7099;53.922;10.728;2023-08-20T16:38:04;29.10;50.70
14049;DHT22;7099;53.922;10.728;2023-08-20T16:42:10;29.20;50.60
14049;DHT22;7099;53.922;10.728;2023-08-20T16:46:15;29.20;50.10
14049;DHT22;7099;53.922;10.728;2023-08-20T16:50:22;29.30;50.20
14049;DHT22;7099;53.922;10.728;2023-08-20T16:54:27;29.20;50.00
14049;DHT22;7099;53.922;10.728;2023-08-20T16:58:33;29.20;50.50
14049;DHT22;7099;53.922;10.728;2023-08-20T17:02:38;29.10;50.60
14049;DHT22;7099;53.922;10.728;2023-08-20T17:06:44;29.10;50.60
14049;DHT22;7099;53.922;10.728;2023-08-20T17:10:49;29.10;50.10
14049;DHT22;7099;53.922;10.728;2023-08-20T17:14:55;29.00;50.60
14049;DHT22;7099;53.922;10.728;2023-08-20T17:19:01;28.80;50.60
14049;DHT22;7099;53.922;10.728;2023-08-20T17:23:07;28.80;50.70
14049;DHT22;7099;53.922;10.728;2023-08-20T17:27:13;28.60;50.60
14049;DHT22;7099;53.922;10.728;2023-08-20T17:31:18;28.50;51.80
14049;DHT22;7099;53.922;10.728;2023-08-20T17:35:24;28.50;52.40
14049;DHT22;7099;53.922;10.728;2023-08-20T17:39:29;28.40;51.80
14049;DHT22;7099;53.922;10.728;2023-08-20T17:43:36;28.30;53.20
14049;DHT22;7099;53.922;10.728;2023-08-20T17:47:41;28.20;54.70
14049;DHT22;7099;53.922;10.728;2023-08-20T17:51:47;28.00;55.60
14049;DHT22;7099;53.922;10.728;2023-08-20T17:55:54;27.80;56.40
14049;DHT22;7099;53.922;10.728;2023-08-20T18:00:08;27.60;56.90
14049;DHT22;7099;53.922;10.728;2023-08-20T18:04:13;27.50;57.40
14049;DHT22;7099;53.922;10.728;2023-08-20T18:08:19;27.30;57.30
14049;DHT22;7099;53.922;10.728;2023-08-20T18:12:24;27.20;57.60
14049;DHT22;7099;53.922;10.728;2023-08-20T18:16:30;27.00;58.30
14049;DHT22;7099;53.922;10.728;2023-08-20T18:20:36;26.80;58.80
14049;DHT22;7099;53.922;10.728;2023-08-20T18:24:42;26.60;59.10
14049;DHT22;7099;53.922;10.728;2023-08-20T18:28:47;26.50;59.80
14049;DHT22;7099;53.922;10.728;2023-08-20T18:32:53;26.30;60.60
14049;DHT22;7099;53.922;10.728;2023-08-20T18:36:58;26.10;60.60
14049;DHT22;7099;53.922;10.728;2023-08-20T18:41:05;26.00;61.50
14049;DHT22;7099;53.922;10.728;2023-08-20T18:45:14;25.80;61.90
14049;DHT22;7099;53.922;10.728;2023-08-20T18:49:20;25.60;62.80
14049;DHT22;7099;53.922;10.728;2023-08-20T18:53:26;25.50;63.60
14049;DHT22;7099;53.922;10.728;2023-08-20T18:57:32;25.30;64.20
14049;DHT22;7099;53.922;10.728;2023-08-20T19:01:37;25.20;65.10
14049;DHT22;7099;53.922;10.728;2023-08-20T19:05:46;25.00;66.20
14049;DHT22;7099;53.922;10.728;2023-08-20T19:09:52;24.80;66.90
14049;DHT22;7099;53.922;10.728;2023-08-20T19:13:58;24.70;67.10
14049;DHT22;7099;53.922;10.728;2023-08-20T19:18:06;24.50;67.30
14049;DHT22;7099;53.922;10.728;2023-08-20T19:22:11;24.40;67.80
14049;DHT22;7099;53.922;10.728;2023-08-20T19:26:17;24.30;68.10
14049;DHT22;7099;53.922;10.728;2023-08-20T19:30:25;24.10;68.40
14049;DHT22;7099;53.922;10.728;2023-08-20T19:34:33;24.00;69.00
14049;DHT22;7099;53.922;10.728;2023-08-20T19:38:38;23.80;69.40
14049;DHT22;7099;53.922;10.728;2023-08-20T19:42:44;23.70;69.90
14049;DHT22;7099;53.922;10.728;2023-08-20T19:46:50;23.60;70.50
14049;DHT22;7099;53.922;10.728;2023-08-20T19:50:55;23.50;71.00
14049;DHT22;7099;53.922;10.728;2023-08-20T19:55:01;23.40;71.30
14049;DHT22;7099;53.922;10.728;2023-08-20T19:59:06;23.30;71.40
14049;DHT22;7099;53.922;10.728;2023-08-20T20:03:12;23.10;71.80
14049;DHT22;7099;53.922;10.728;2023-08-20T20:07:18;23.00;72.20
14049;DHT22;7099;53.922;10.728;2023-08-20T20:11:44;22.90;72.60
14049;DHT22;7099;53.922;10.728;2023-08-20T20:15:49;22.70;73.10
14049;DHT22;7099;53.922;10.728;2023-08-20T20:19:55;22.60;73.60
14049;DHT22;7099;53.922;10.728;2023-08-20T20:24:01;22.50;73.90
14049;DHT22;7099;53.922;10.728;2023-08-20T20:28:06;22.40;74.10
14049;DHT22;7099;53.922;10.728;2023-08-20T20:32:12;22.40;74.40
14049;DHT22;7099;53.922;10.728;2023-08-20T20:36:17;22.30;74.60
14049;DHT22;7099;53.922;10.728;2023-08-20T20:40:23;22.20;75.00
14049;DHT22;7099;53.922;10.728;2023-08-20T20:44:29;22.10;75.20
14049;DHT22;7099;53.922;10.728;2023-08-20T20:48:35;22.00;75.40
14049;DHT22;7099;53.922;10.728;2023-08-20T20:52:40;21.90;75.90
14049;DHT22;7099;53.922;10.728;2023-08-20T20:56:46;21.80;76.30
14049;DHT22;7099;53.922;10.728;2023-08-20T21:00:55;21.80;76.90
14049;DHT22;7099;53.922;10.728;2023-08-20T21:05:02;21.70;77.70
14049;DHT22;7099;53.922;10.728;2023-08-20T21:09:07;21.70;77.70
14049;DHT22;7099;53.922;10.728;2023-08-20T21:13:14;21.60;77.90
14049;DHT22;7099;53.922;10.728;2023-08-20T21:17:19;21.50;78.40
14049;DHT22;7099;53.922;10.728;2023-08-20T21:21:25;21.40;78.30
14049;DHT22;7099;53.922;10.728;2023-08-20T21:25:30;21.40;78.70
14049;DHT22;7099;53.922;10.728;2023-08-20T21:29:39;21.30;78.80
14049;DHT22;7099;53.922;10.728;2023-08-20T21:33:45;21.30;79.10
14049;DHT22;7099;53.922;10.728;2023-08-20T21:37:50;21.30;78.80
14049;DHT22;7099;53.922;10.728;2023-08-20T21:41:56;21.20;78.90
14049;DHT22;7099;53.922;10.728;2023-08-20T21:46:03;21.10;78.90
14049;DHT22;7099;53.922;10.728;2023-08-20T21:50:09;21.00;78.80
14049;DHT22;7099;53.922;10.728;2023-08-20T21:54:15;21.00;78.80
14049;DHT22;7099;53.922;10.728;2023-08-20T21:58:20;20.90;78.90
14049;DHT22;7099;53.922;10.728;2023-08-20T22:02:26;20.80;79.20
14049;DHT22;7099;53.922;10.728;2023-08-20T22:06:32;20.70;79.60
14049;DHT22;7099;53.922;10.728;2023-08-20T22:10:37;20.60;79.70
14049;DHT22;7099;53.922;10.728;2023-08-20T22:14:43;20.60;80.10
14049;DHT22;7099;53.922;10.728;2023-08-20T22:18:50;20.60;80.70
14049;DHT22;7099;53.922;10.728;2023-08-20T22:22:56;20.50;80.40
14049;DHT22;7099;53.922;10.728;2023-08-20T22:27:02;20.50;80.60
14049;DHT22;7099;53.922;10.728;2023-08-20T22:31:08;20.40;80.40
14049;DHT22;7099;53.922;10.728;2023-08-20T22:35:13;20.30;80.40
14049;DHT22;7099;53.922;10.728;2023-08-20T22:39:19;20.30;80.60
14049;DHT22;7099;53.922;10.728;2023-08-20T22:43:25;20.20;80.60
14049;DHT22;7099;53.922;10.728;2023-08-20T22:47:30;20.20;80.60
14049;DHT22;7099;53.922;10.728;2023-08-20T22:51:36;20.10;80.70
14049;DHT22;7099;53.922;10.728;2023-08-20T22:55:41;20.00;80.70
14049;DHT22;7099;53.922;10.728;2023-08-20T22:59:47;20.00;80.50
14049;DHT22;7099;53.922;10.728;2023-08-20T23:03:52;19.90;80.60
14049;DHT22;7099;53.922;10.728;2023-08-20T23:07:58;19.80;80.70
14049;DHT22;7099;53.922;10.728;2023-08-20T23:12:03;19.70;80.70
14049;DHT22;7099;53.922;10.728;2023-08-20T23:16:09;19.70;81.00
14049;DHT22;7099;53.922;10.728;2023-08-20T23:20:15;19.60;80.90
14049;DHT22;7099;53.922;10.728;2023-08-20T23:24:20;19.60;81.00
14049;DHT22;7099;53.922;10.728;2023-08-20T23:28:26;19.50;81.10
14049;DHT22;7099;53.922;10.728;2023-08-20T23:32:32;19.40;81.30
14049;DHT22;7099;53.922;10.728;2023-08-20T23:36:37;19.40;81.40
14049;DHT22;7099;53.922;10.728;2023-08-20T23:40:43;19.30;81.50
14049;DHT22;7099;53.922;10.728;2023-08-20T23:44:49;19.30;81.50
14049;DHT22;7099;53.922;10.728;2023-08-20T23:48:54;19.20;81.60
14049;DHT22;7099;53.922;10.728;2023-08-20T23:53:00;19.20;81.60
14049;DHT22;7099;53.922;10.728;2023-08-20T23:57:05;19.10;81.80
